Time;durP1;ratioP1;P1;durP2;ratioP2;P2;SDS_P1;SDS_P2;PMS_P1;PMS_P2;Temp;Humidity;BMP_temperature;BMP_pressure;BME280_temperature;BME280_humidity;BME280_pressure;Samples;Min_cycle;Max_cycle;Signal;HPM_P1;HPM_P2
2023/09/04 00:03:00;;;;;;;7.45;4.15;;;;;;;;;;12878751;23;20293;-69
2023/09/04 00:08:01;;;;;;;5.27;3.70;;;;;;;;;;12878979;23;20060;-69
2023/09/04 00:13:01;;;;;;;7.90;3.65;;;;;;;;;;12878830;23;19993;-68
2023/09/04 00:18:01;;;;;;;6.68;3.65;;;;;;;;;;12878547;23;20012;-68
2023/09/04 00:23:02;;;;;;;5.73;4.13;;;;;;;;;;12878987;23;19984;-68
2023/09/04 00:28:03;;;;;;;10.13;4.85;;;;;;;;;;12878594;23;20262;-69
2023/09/04 00:33:03;;;;;;;8.20;5.03;;;;;;;;;;12878672;23;20024;-68
2023/09/04 00:38:03;;;;;;;8.18;4.65;;;;;;;;;;12869344;23;20039;-68
2023/09/04 00:43:04;;;;;;;9.73;4.70;;;;;;;;;;12882374;23;19997;-68
2023/09/04 00:48:04;;;;;;;8.75;5.05;;;;;;;;;;12882516;23;20044;-68
2023/09/04 00:53:05;;;;;;;7.05;4.13;;;;;;;;;;12881816;23;20187;-68
2023/09/04 00:58:05;;;;;;;6.85;5.22;;;;;;;;;;12834615;23;20483;-68
2023/09/04 01:03:06;;;;;;;9.13;5.67;;;;;;;;;;12881962;23;20047;-68
2023/09/04 01:08:07;;;;;;;7.78;4.80;;;;;;;;;;12834072;23;20058;-69
2023/09/04 01:13:22;;;;;;;6.38;4.53;;;;;;;;;;12881775;23;20001;-68
2023/09/04 01:18:22;;;;;;;10.35;5.07;;;;;;;;;;12881263;23;20284;-68
2023/09/04 01:23:23;;;;;;;7.97;5.63;;;;;;;;;;12881348;23;20160;-68
2023/09/04 01:28:47;;;;;;;7.55;5.90;;;;;;;;;;12834205;23;19999;-67
2023/09/04 01:33:50;;;;;;;11.73;7.07;;;;;;;;;;12833603;23;20050;-67
2023/09/04 01:38:50;;;;;;;12.55;8.20;;;;;;;;;;12867760;23;20060;-68
2023/09/04 01:43:51;;;;;;;12.82;8.60;;;;;;;;;;12880660;23;20182;-67
2023/09/04 01:48:51;;;;;;;14.57;8.63;;;;;;;;;;12880380;23;20212;-66
2023/09/04 01:53:51;;;;;;;13.25;7.90;;;;;;;;;;12880330;23;19993;-66
2023/09/04 01:58:51;;;;;;;11.87;9.00;;;;;;;;;;12880426;23;20305;-66
2023/09/04 02:03:56;;;;;;;14.73;9.95;;;;;;;;;;12880358;23;19989;-66
2023/09/04 02:08:56;;;;;;;11.40;9.30;;;;;;;;;;12880125;23;20369;-66
2023/09/04 02:13:56;;;;;;;12.27;9.15;;;;;;;;;;12880403;23;20066;-67
2023/09/04 02:18:57;;;;;;;13.27;9.60;;;;;;;;;;12880507;23;20009;-66
2023/09/04 02:23:57;;;;;;;11.50;8.98;;;;;;;;;;12879721;23;19992;-66
2023/09/04 02:28:57;;;;;;;12.43;9.10;;;;;;;;;;12878907;23;19988;-67
2023/09/04 02:33:57;;;;;;;11.88;9.52;;;;;;;;;;12878990;23;20015;-66
2023/09/04 02:38:58;;;;;;;12.38;9.20;;;;;;;;;;12865099;23;20004;-67
2023/09/04 02:43:58;;;;;;;14.35;10.57;;;;;;;;;;12878672;23;20062;-67
2023/09/04 02:48:58;;;;;;;12.48;9.48;;;;;;;;;;12831579;23;20016;-67
2023/09/04 02:53:59;;;;;;;11.93;9.43;;;;;;;;;;12878296;23;20261;-66
2023/09/04 02:59:00;;;;;;;11.82;8.77;;;;;;;;;;12878933;23;20382;-66
2023/09/04 03:04:00;;;;;;;12.15;9.07;;;;;;;;;;12878535;23;19997;-66
2023/09/04 03:09:00;;;;;;;13.90;9.43;;;;;;;;;;12878370;23;19993;-66
2023/09/04 03:14:00;;;;;;;13.70;9.15;;;;;;;;;;12831074;23;20175;-67
2023/09/04 03:19:01;;;;;;;8.10;6.95;;;;;;;;;;12878295;23;20360;-66
2023/09/04 03:24:01;;;;;;;9.18;7.20;;;;;;;;;;12878497;23;20283;-66
2023/09/04 03:29:02;;;;;;;8.52;6.78;;;;;;;;;;12830779;23;20001;-67
2023/09/04 03:34:02;;;;;;;7.72;6.70;;;;;;;;;;12877852;23;19997;-66
2023/09/04 03:39:03;;;;;;;8.40;6.68;;;;;;;;;;12862805;23;20001;-66
2023/09/04 03:44:03;;;;;;;12.00;6.88;;;;;;;;;;12830962;23;20008;-68
2023/09/04 03:49:04;;;;;;;9.07;6.27;;;;;;;;;;12878083;23;20289;-67
2023/09/04 03:54:04;;;;;;;8.95;6.05;;;;;;;;;;12878613;23;20262;-66
2023/09/04 03:59:04;;;;;;;7.60;6.27;;;;;;;;;;12877447;23;20278;-67
2023/09/04 04:04:05;;;;;;;9.68;6.05;;;;;;;;;;12877898;23;19992;-66
2023/09/04 04:09:06;;;;;;;7.53;5.97;;;;;;;;;;12877388;23;20154;-68
2023/09/04 04:14:07;;;;;;;7.53;6.40;;;;;;;;;;12881387;23;19996;-71
2023/09/04 04:19:07;;;;;;;8.75;6.72;;;;;;;;;;12881429;23;20195;-71
2023/09/04 04:24:07;;;;;;;10.98;6.97;;;;;;;;;;12876532;23;20405;-75
2023/09/04 04:29:07;;;;;;;9.48;7.18;;;;;;;;;;12872974;23;19995;-77
2023/09/04 04:34:09;;;;;;;9.30;6.95;;;;;;;;;;12820717;23;20082;-78
2023/09/04 04:39:09;;;;;;;6.90;6.20;;;;;;;;;;12825080;23;19992;-75
2023/09/04 04:44:09;;;;;;;10.15;7.03;;;;;;;;;;12819246;23;20491;-76
2023/09/04 04:49:09;;;;;;;7.88;5.53;;;;;;;;;;12866165;23;19997;-78
2023/09/04 04:54:10;;;;;;;5.70;4.03;;;;;;;;;;12821106;23;20496;-75
2023/09/04 04:59:10;;;;;;;5.40;4.15;;;;;;;;;;12870233;23;20024;-82
2023/09/04 05:04:10;;;;;;;13.07;4.60;;;;;;;;;;12793604;23;20071;-78
2023/09/04 05:09:11;;;;;;;7.33;5.03;;;;;;;;;;12862749;23;20011;-77
2023/09/04 05:14:11;;;;;;;7.03;3.60;;;;;;;;;;12815398;23;20504;-77
2023/09/04 05:19:12;;;;;;;5.05;3.60;;;;;;;;;;12796688;23;20028;-77
2023/09/04 05:24:12;;;;;;;6.70;3.65;;;;;;;;;;12825218;23;20024;-79
2023/09/04 05:29:12;;;;;;;4.97;3.83;;;;;;;;;;12835848;23;20079;-77
2023/09/04 05:34:13;;;;;;;5.93;4.13;;;;;;;;;;12863005;23;20001;-78
2023/09/04 05:39:13;;;;;;;5.65;3.97;;;;;;;;;;12818147;23;20019;-76
2023/09/04 05:44:15;;;;;;;6.75;3.40;;;;;;;;;;12828975;23;20424;-80
2023/09/04 05:49:15;;;;;;;11.15;5.00;;;;;;;;;;12846756;23;20118;-81
2023/09/04 05:54:17;;;;;;;9.77;4.78;;;;;;;;;;12856966;23;20441;-79
2023/09/04 05:59:18;;;;;;;12.90;5.45;;;;;;;;;;12859027;23;19992;-82
2023/09/04 06:04:18;;;;;;;8.63;5.38;;;;;;;;;;12848133;23;20072;-77
2023/09/04 06:09:19;;;;;;;8.75;5.18;;;;;;;;;;12845016;23;20464;-78
2023/09/04 06:14:19;;;;;;;6.85;4.63;;;;;;;;;;12870695;23;20000;-76
2023/09/04 06:19:19;;;;;;;4.82;4.32;;;;;;;;;;12842733;23;20012;-78
2023/09/04 06:24:22;;;;;;;9.07;5.63;;;;;;;;;;12848269;23;20017;-79
2023/09/04 06:29:25;;;;;;;6.68;5.10;;;;;;;;;;12852065;23;20024;-78
2023/09/04 06:34:26;;;;;;;12.43;4.80;;;;;;;;;;12845289;23;20016;-79
2023/09/04 06:39:29;;;;;;;8.10;5.45;;;;;;;;;;12830032;23;20380;-80
2023/09/04 06:44:49;;;;;;;9.02;4.97;;;;;;;;;;12838523;23;20001;-76
2023/09/04 06:49:49;;;;;;;6.10;4.75;;;;;;;;;;12863743;23;20004;-76
2023/09/04 06:54:50;;;;;;;5.07;4.35;;;;;;;;;;12817115;23;20001;-76
2023/09/04 06:59:52;;;;;;;10.48;5.13;;;;;;;;;;12863550;23;20093;-77
2023/09/04 07:04:53;;;;;;;7.60;4.65;;;;;;;;;;12837287;23;20131;-76
2023/09/04 07:09:53;;;;;;;10.63;6.53;;;;;;;;;;12820112;23;20122;-81
2023/09/04 07:14:57;;;;;;;9.07;4.93;;;;;;;;;;12861969;23;20004;-80
2023/09/04 07:19:57;;;;;;;7.35;5.07;;;;;;;;;;12819969;23;20378;-78
2023/09/04 07:24:57;;;;;;;8.20;5.60;;;;;;;;;;12815700;23;20020;-79
2023/09/04 07:29:58;;;;;;;7.63;5.97;;;;;;;;;;12821977;23;20001;-77
2023/09/04 07:34:58;;;;;;;5.72;5.03;;;;;;;;;;12863780;23;19997;-79
2023/09/04 07:40:10;;;;;;;6.35;5.40;;;;;;;;;;12864593;23;20099;-85
2023/09/04 07:45:10;;;;;;;6.82;5.22;;;;;;;;;;12849512;23;20000;-79
2023/09/04 07:50:11;;;;;;;6.05;5.18;;;;;;;;;;12866315;23;19997;-77
2023/09/04 07:55:13;;;;;;;6.25;5.18;;;;;;;;;;12853060;23;20078;-77
2023/09/04 08:00:19;;;;;;;7.88;4.70;;;;;;;;;;12877946;23;20044;-80
2023/09/04 08:05:19;;;;;;;7.80;5.53;;;;;;;;;;12858509;23;20012;-75
2023/09/04 08:10:19;;;;;;;7.43;5.80;;;;;;;;;;12865712;23;20001;-76
2023/09/04 08:15:19;;;;;;;16.60;5.75;;;;;;;;;;12859655;23;20488;-77
2023/09/04 08:20:20;;;;;;;7.75;5.60;;;;;;;;;;12861973;23;20028;-81
2023/09/04 08:25:20;;;;;;;7.63;5.38;;;;;;;;;;12852215;23;20035;-78
2023/09/04 08:30:21;;;;;;;7.73;5.50;;;;;;;;;;12824055;23;20001;-82
2023/09/04 08:35:21;;;;;;;10.18;5.45;;;;;;;;;;12846772;23;20457;-78
2023/09/04 08:40:21;;;;;;;7.67;5.33;;;;;;;;;;12844432;23;19997;-77
2023/09/04 08:45:22;;;;;;;6.95;4.75;;;;;;;;;;12844515;23;20228;-81
2023/09/04 08:50:23;;;;;;;10.10;5.30;;;;;;;;;;12845719;23;20008;-75
2023/09/04 08:55:23;;;;;;;8.10;6.50;;;;;;;;;;12823760;23;20448;-81
2023/09/04 09:00:24;;;;;;;12.13;5.40;;;;;;;;;;12868232;23;20404;-81
2023/09/04 09:05:30;;;;;;;5.70;5.05;;;;;;;;;;12848343;23;20204;-80
2023/09/04 09:10:32;;;;;;;10.60;5.50;;;;;;;;;;12846299;23;20027;-81
2023/09/04 09:15:33;;;;;;;10.63;7.30;;;;;;;;;;12868055;23;19996;-85
2023/09/04 09:20:44;;;;;;;9.80;5.90;;;;;;;;;;12848036;23;20483;-80
2023/09/04 09:25:53;;;;;;;11.23;5.68;;;;;;;;;;12842417;23;20075;-76
2023/09/04 09:30:54;;;;;;;9.40;6.30;;;;;;;;;;12866303;23;20064;-78
2023/09/04 09:35:56;;;;;;;8.05;6.15;;;;;;;;;;12863743;23;20027;-77
2023/09/04 09:40:56;;;;;;;6.00;4.82;;;;;;;;;;12866539;23;20367;-81
2023/09/04 09:45:57;;;;;;;11.07;6.25;;;;;;;;;;12843682;23;19996;-77
2023/09/04 09:50:57;;;;;;;12.00;8.17;;;;;;;;;;12818348;23;20036;-76
2023/09/04 09:55:59;;;;;;;11.65;6.50;;;;;;;;;;12860452;23;20000;-79
2023/09/04 10:01:01;;;;;;;10.02;6.07;;;;;;;;;;12843448;23;20537;-77
2023/09/04 10:06:02;;;;;;;6.72;5.07;;;;;;;;;;12842784;23;20009;-76
2023/09/04 10:11:05;;;;;;;10.05;6.63;;;;;;;;;;12864525;23;20000;-78
2023/09/04 10:16:10;;;;;;;9.48;6.88;;;;;;;;;;12847310;23;20543;-77
2023/09/04 10:21:13;;;;;;;9.30;6.38;;;;;;;;;;12817292;23;20007;-78
2023/09/04 10:26:24;;;;;;;12.10;9.18;;;;;;;;;;12817436;23;20024;-77
2023/09/04 10:31:25;;;;;;;16.08;8.30;;;;;;;;;;12842561;23;20000;-76
2023/09/04 10:36:27;;;;;;;14.65;9.25;;;;;;;;;;12866264;23;20415;-79
2023/09/04 10:41:31;;;;;;;11.95;9.00;;;;;;;;;;12848525;23;19993;-79
2023/09/04 10:46:32;;;;;;;14.43;9.65;;;;;;;;;;12843855;23;20001;-76
2023/09/04 10:51:33;;;;;;;20.13;11.25;;;;;;;;;;12822217;23;20455;-78
2023/09/04 10:56:53;;;;;;;16.92;10.38;;;;;;;;;;12854657;23;20001;-79
2023/09/04 11:01:53;;;;;;;18.35;11.10;;;;;;;;;;12865204;23;19999;-77
2023/09/04 11:07:12;;;;;;;14.20;10.45;;;;;;;;;;12821092;23;20398;-81
2023/09/04 11:12:24;;;;;;;15.73;10.68;;;;;;;;;;12817485;23;20001;-79
2023/09/04 11:17:28;;;;;;;27.10;10.18;;;;;;;;;;12816949;23;20121;-75
2023/09/04 11:22:28;;;;;;;9.77;7.22;;;;;;;;;;12819799;23;20050;-80
2023/09/04 11:27:30;;;;;;;9.20;6.72;;;;;;;;;;12821747;23;20020;-83
2023/09/04 11:32:37;;;;;;;11.15;7.78;;;;;;;;;;12819252;23;20061;-76
2023/09/04 11:37:37;;;;;;;13.52;7.90;;;;;;;;;;12817627;23;20008;-77
2023/09/04 11:42:37;;;;;;;14.60;8.82;;;;;;;;;;12817933;23;20005;-75
2023/09/04 11:47:38;;;;;;;15.68;9.48;;;;;;;;;;12795687;23;20063;-77
2023/09/04 11:52:40;;;;;;;12.13;9.00;;;;;;;;;;12865474;23;19992;-82
2023/09/04 11:57:40;;;;;;;11.73;8.90;;;;;;;;;;12813089;23;20449;-75
2023/09/04 12:02:42;;;;;;;16.05;9.95;;;;;;;;;;12821380;23;20001;-84
2023/09/04 12:07:44;;;;;;;14.18;8.55;;;;;;;;;;12818236;23;20380;-81
2023/09/04 12:12:45;;;;;;;17.60;8.85;;;;;;;;;;12851740;23;20001;-80
2023/09/04 12:17:48;;;;;;;12.93;8.57;;;;;;;;;;12820522;23;20103;-78
2023/09/04 12:22:59;;;;;;;13.10;8.15;;;;;;;;;;12796711;23;21254;-77
2023/09/04 12:28:10;;;;;;;11.00;8.15;;;;;;;;;;12798252;23;20021;-76
2023/09/04 12:33:14;;;;;;;11.52;9.57;;;;;;;;;;12827822;23;20087;-81
2023/09/04 12:38:14;;;;;;;10.73;8.52;;;;;;;;;;12822315;23;20008;-74
2023/09/04 12:43:15;;;;;;;11.15;6.50;;;;;;;;;;12797533;23;20060;-79
2023/09/04 12:48:16;;;;;;;7.90;6.32;;;;;;;;;;12823858;23;20001;-78
2023/09/04 12:53:17;;;;;;;8.85;5.85;;;;;;;;;;12823149;23;20075;-82
2023/09/04 12:58:18;;;;;;;12.68;7.50;;;;;;;;;;12845747;23;20005;-78
2023/09/04 13:03:19;;;;;;;11.30;7.50;;;;;;;;;;12851558;23;20020;-82
2023/09/04 13:08:19;;;;;;;12.05;6.40;;;;;;;;;;12819272;23;20429;-77
2023/09/04 13:13:19;;;;;;;9.75;6.15;;;;;;;;;;12816847;23;20079;-80
2023/09/04 13:18:20;;;;;;;12.80;6.95;;;;;;;;;;12825960;23;20444;-80
2023/09/04 13:23:20;;;;;;;6.70;5.35;;;;;;;;;;12800582;23;20028;-80
2023/09/04 13:28:22;;;;;;;7.32;4.82;;;;;;;;;;12831127;23;20020;-72
2023/09/04 13:33:48;;;;;;;10.82;6.20;;;;;;;;;;12875582;23;19996;-74
2023/09/04 13:38:49;;;;;;;8.35;5.90;;;;;;;;;;12876345;23;20027;-83
2023/09/04 13:43:50;;;;;;;7.40;5.95;;;;;;;;;;12846156;23;20013;-74
2023/09/04 13:48:50;;;;;;;8.35;5.55;;;;;;;;;;12864345;23;19999;-78
2023/09/04 13:53:51;;;;;;;7.20;5.20;;;;;;;;;;12856370;23;20036;-80
2023/09/04 13:58:51;;;;;;;9.73;5.05;;;;;;;;;;12845253;23;20232;-73
2023/09/04 14:03:51;;;;;;;11.00;5.60;;;;;;;;;;12871541;23;20000;-65
2023/09/04 14:08:52;;;;;;;14.15;5.85;;;;;;;;;;12872178;23;20040;-77
2023/09/04 14:13:52;;;;;;;14.05;5.65;;;;;;;;;;12857501;23;20004;-79
2023/09/04 14:18:53;;;;;;;18.30;6.03;;;;;;;;;;12856013;23;19985;-72
2023/09/04 14:23:53;;;;;;;14.87;6.20;;;;;;;;;;12840434;23;20009;-79
2023/09/04 14:28:53;;;;;;;10.05;5.70;;;;;;;;;;12847569;23;20008;-73
2023/09/04 14:33:54;;;;;;;14.30;6.03;;;;;;;;;;12852840;23;20063;-78
2023/09/04 14:38:54;;;;;;;14.23;6.30;;;;;;;;;;12850022;23;20326;-75
2023/09/04 14:43:55;;;;;;;12.35;7.55;;;;;;;;;;12845288;23;20075;-74
2023/09/04 14:48:56;;;;;;;8.75;6.50;;;;;;;;;;12849428;23;20003;-85
2023/09/04 14:53:57;;;;;;;9.00;5.75;;;;;;;;;;12846495;23;20036;-75
2023/09/04 14:58:58;;;;;;;7.60;5.07;;;;;;;;;;12854014;23;20335;-78
2023/09/04 15:04:01;;;;;;;8.98;6.00;;;;;;;;;;12900631;23;20048;-74
2023/09/04 15:09:03;;;;;;;9.65;5.93;;;;;;;;;;12904886;23;20007;-79
2023/09/04 15:14:03;;;;;;;10.90;5.43;;;;;;;;;;12878159;23;20004;-76
2023/09/04 15:19:04;;;;;;;8.37;4.97;;;;;;;;;;12848574;23;20045;-76
2023/09/04 15:24:05;;;;;;;8.50;5.43;;;;;;;;;;12891246;23;20023;-79
2023/09/04 15:29:06;;;;;;;11.40;6.07;;;;;;;;;;12827613;23;20054;-81
2023/09/04 15:34:07;;;;;;;10.00;5.38;;;;;;;;;;12883020;23;20001;-77
2023/09/04 15:39:07;;;;;;;9.80;6.17;;;;;;;;;;12827796;23;19993;-85
2023/09/04 15:44:08;;;;;;;7.78;5.05;;;;;;;;;;12862775;23;20227;-76
2023/09/04 15:49:08;;;;;;;8.70;5.55;;;;;;;;;;12822448;23;20008;-76
2023/09/04 15:54:10;;;;;;;10.67;6.57;;;;;;;;;;12821370;23;20031;-83
2023/09/04 15:59:12;;;;;;;10.13;5.20;;;;;;;;;;12851658;23;20000;-82
2023/09/04 16:04:13;;;;;;;10.13;6.03;;;;;;;;;;12851196;23;20356;-75
2023/09/04 16:09:13;;;;;;;10.98;6.78;;;;;;;;;;12825375;23;20076;-76
2023/09/04 16:14:15;;;;;;;12.13;6.97;;;;;;;;;;12820110;23;20019;-76
2023/09/04 16:19:15;;;;;;;10.65;6.10;;;;;;;;;;12829347;23;20027;-78
2023/09/04 16:24:17;;;;;;;12.03;7.27;;;;;;;;;;12801205;23;20026;-74
2023/09/04 16:29:20;;;;;;;12.73;7.85;;;;;;;;;;12864340;23;20087;-73
2023/09/04 16:34:21;;;;;;;14.18;7.82;;;;;;;;;;12838705;23;20594;-76
2023/09/04 16:39:22;;;;;;;13.98;7.47;;;;;;;;;;12871597;23;20031;-78
2023/09/04 16:44:22;;;;;;;16.05;8.35;;;;;;;;;;12836838;23;20476;-78
2023/09/04 16:49:23;;;;;;;13.13;8.80;;;;;;;;;;12874866;23;20091;-78
2023/09/04 16:54:25;;;;;;;11.77;7.18;;;;;;;;;;12847371;23;20095;-69
2023/09/04 16:59:25;;;;;;;15.38;8.88;;;;;;;;;;12692080;23;20005;-68
2023/09/04 17:04:25;;;;;;;16.02;8.40;;;;;;;;;;12692806;23;20283;-69
2023/09/04 17:09:25;;;;;;;16.05;8.73;;;;;;;;;;12693088;23;20048;-69
2023/09/04 17:14:26;;;;;;;14.75;8.60;;;;;;;;;;12691784;23;20025;-68
2023/09/04 17:19:26;;;;;;;15.52;9.82;;;;;;;;;;12691619;23;20205;-72
2023/09/04 17:24:26;;;;;;;14.68;8.98;;;;;;;;;;12692309;23;19997;-67
2023/09/04 17:29:27;;;;;;;18.58;9.63;;;;;;;;;;12692026;23;20006;-68
2023/09/04 17:34:28;;;;;;;17.15;9.77;;;;;;;;;;12691757;23;20014;-68
2023/09/04 17:39:29;;;;;;;17.60;10.38;;;;;;;;;;12692280;23;20040;-67
2023/09/04 17:44:29;;;;;;;16.17;10.45;;;;;;;;;;12691802;23;20350;-68
2023/09/04 17:49:29;;;;;;;22.20;11.00;;;;;;;;;;12691966;23;20004;-68
2023/09/04 17:54:29;;;;;;;19.73;10.82;;;;;;;;;;12679888;23;20029;-69
2023/09/04 17:59:30;;;;;;;20.85;11.43;;;;;;;;;;12691415;23;20321;-67
2023/09/04 18:04:30;;;;;;;18.70;11.90;;;;;;;;;;12691275;23;20187;-68
2023/09/04 18:09:31;;;;;;;19.27;10.43;;;;;;;;;;12691858;23;20246;-68
2023/09/04 18:14:31;;;;;;;18.90;11.52;;;;;;;;;;12691192;23;20001;-68
2023/09/04 18:19:31;;;;;;;20.35;11.98;;;;;;;;;;12691228;23;20001;-68
2023/09/04 18:24:31;;;;;;;23.30;11.50;;;;;;;;;;12691513;23;19994;-68
2023/09/04 18:29:32;;;;;;;27.67;12.63;;;;;;;;;;12690946;23;19994;-67
2023/09/04 18:34:32;;;;;;;19.15;11.77;;;;;;;;;;12689459;23;20240;-68
2023/09/04 18:39:33;;;;;;;28.08;13.25;;;;;;;;;;12690074;23;20018;-67
2023/09/04 18:44:33;;;;;;;20.00;11.48;;;;;;;;;;12689833;23;20094;-68
2023/09/04 18:49:33;;;;;;;23.90;11.82;;;;;;;;;;12689831;23;20310;-68
2023/09/04 18:54:34;;;;;;;23.73;14.05;;;;;;;;;;12684991;23;20002;-68
2023/09/04 18:59:36;;;;;;;22.90;12.03;;;;;;;;;;12689676;23;20013;-67
2023/09/04 19:04:36;;;;;;;20.05;11.13;;;;;;;;;;12689510;23;20021;-69
2023/09/04 19:09:37;;;;;;;22.25;11.82;;;;;;;;;;12689606;23;19998;-69
2023/09/04 19:14:37;;;;;;;18.65;11.07;;;;;;;;;;12689660;23;20004;-68
2023/09/04 19:19:37;;;;;;;25.05;11.32;;;;;;;;;;12689204;23;20056;-69
2023/09/04 19:24:39;;;;;;;16.05;10.82;;;;;;;;;;12686102;23;20113;-68
2023/09/04 19:29:39;;;;;;;20.33;11.20;;;;;;;;;;12688109;23;20048;-67
2023/09/04 19:34:39;;;;;;;18.75;9.98;;;;;;;;;;12686068;23;20335;-67
2023/09/04 19:39:41;;;;;;;23.93;12.37;;;;;;;;;;12688550;23;19993;-67
2023/09/04 19:44:41;;;;;;;21.15;10.65;;;;;;;;;;12694607;23;19990;-68
2023/09/04 19:49:42;;;;;;;17.77;10.10;;;;;;;;;;12694704;23;19998;-67
2023/09/04 19:54:42;;;;;;;16.33;9.77;;;;;;;;;;12689992;23;20439;-68
2023/09/04 19:59:43;;;;;;;20.42;10.55;;;;;;;;;;12686320;23;20588;-70
2023/09/04 20:04:43;;;;;;;19.98;10.45;;;;;;;;;;12682610;23;20065;-80
2023/09/04 20:09:43;;;;;;;22.80;10.80;;;;;;;;;;12682663;23;20276;-79
2023/09/04 20:14:44;;;;;;;18.50;10.20;;;;;;;;;;12684555;23;19998;-79
2023/09/04 20:19:44;;;;;;;18.17;10.00;;;;;;;;;;12665277;23;20326;-78
2023/09/04 20:24:44;;;;;;;18.63;9.70;;;;;;;;;;12690127;23;20305;-78
2023/09/04 20:29:44;;;;;;;16.60;9.65;;;;;;;;;;12683502;23;20255;-79
2023/09/04 20:34:45;;;;;;;12.57;7.73;;;;;;;;;;12686941;23;20024;-82
2023/09/04 20:39:45;;;;;;;18.88;8.30;;;;;;;;;;12643923;23;20021;-82
2023/09/04 20:44:45;;;;;;;12.82;7.20;;;;;;;;;;12643051;23;20130;-84
2023/09/04 20:49:45;;;;;;;13.43;6.65;;;;;;;;;;12687619;23;20303;-79
2023/09/04 20:54:46;;;;;;;9.65;6.60;;;;;;;;;;12675717;23;20010;-79
2023/09/04 20:59:46;;;;;;;12.95;6.13;;;;;;;;;;12678095;23;20053;-76
2023/09/04 21:04:46;;;;;;;8.07;5.10;;;;;;;;;;12676078;23;20025;-70
2023/09/04 23:22:24;;;;;;;9.40;6.20;;;;;;;;;;12685719;23;20240;-71
2023/09/04 23:27:29;;;;;;;9.53;6.23;;;;;;;;;;12686123;23;19993;-71
2023/09/04 23:32:51;;;;;;;10.55;6.95;;;;;;;;;;12638019;23;20285;-71
2023/09/04 23:38:05;;;;;;;9.15;5.97;;;;;;;;;;12664456;23;20010;-72
2023/09/04 23:48:24;;;;;;;11.25;6.22;;;;;;;;;;12684770;23;19998;-72
2023/09/04 23:53:25;;;;;;;9.82;6.43;;;;;;;;;;12684428;23;19998;-71
2023/09/04 23:58:26;;;;;;;12.38;8.02;;;;;;;;;;12684550;23;20185;-70
